ADDS METAR Data INFO
IDs: Format: Raw Decoded Include TAF

Data at: 0707 UTC 19 Oct 2017

K3R7 190655Z AUTO 12003KT 10SM CLR 18/17 A3014 RMK AO2 T01840167
K3R7 190635Z AUTO 13004KT 10SM SCT041 19/17 A3014 RMK AO2 T01850167
K3R7 190615Z AUTO 14005KT 10SM CLR 19/17 A3014 RMK AO2 T01870166
K3R7 190555Z AUTO 14005KT 10SM CLR 19/17 A3015 RMK AO2 T01890165 10238 20176 402790115
K3R7 190535Z AUTO 13006KT 10SM CLR 19/17 A3015 RMK AO2 T01920165
K3R7 190515Z AUTO 12006KT 10SM CLR 20/16 A3015 RMK AO2 T01950160
K3R7 190455Z AUTO 14003KT 10SM CLR 20/16 A3016 RMK AO2 T01960160
K3R7 190435Z AUTO 13005KT 10SM CLR 20/16 A3016 RMK AO2 T01950155
K3R7 190415Z AUTO 10004KT 10SM CLR 18/15 A3017 RMK AO2 T01800151
K3R7 190355Z AUTO 10003KT 10SM CLR 18/15 A3017 RMK AO2 T01770145
K3R7 190335Z AUTO 00000KT 10SM CLR 18/15 A3017 RMK AO2 T01810146
K3R7 190315Z AUTO 00000KT 10SM CLR 18/15 A3017 RMK AO2 T01830148
K3R7 190255Z AUTO 00000KT 10SM CLR 18/14 A3016 RMK AO2 T01790143
K3R7 190235Z AUTO 00000KT 10SM CLR 20/14 A3015 RMK AO2 T01970144
K3R7 190215Z AUTO 10003KT 10SM CLR 20/15 A3015 RMK AO2 T02000145
K3R7 190155Z AUTO 00000KT 10SM CLR 20/14 A3015 RMK AO2 T02010143
K3R7 190135Z AUTO 00000KT 10SM CLR 20/15 A3014 RMK AO2 T02040145
K3R7 190115Z AUTO 00000KT 10SM CLR 21/15 A3014 RMK AO2 T02120145
K3R7 190055Z AUTO 17004KT 10SM CLR 21/15 A3014 RMK AO2 T02090146
K3R7 190035Z AUTO 00000KT 10SM CLR 21/15 A3013 RMK AO2 T02110147
K3R7 190015Z AUTO 04003KT 10SM CLR 22/15 A3012 RMK AO2 T02210146
K3R7 182355Z AUTO 10SM CLR 24/14 A3012 RMK AO2 T02400143 10279 20240
K3R7 182335Z AUTO 05003KT 10SM CLR 25/14 A3011 RMK AO2 T02470144
K3R7 182315Z AUTO 00000KT 10SM CLR 25/14 A3011 RMK AO2 T02540141
K3R7 182255Z AUTO 11003KT 10SM CLR 26/14 A3011 RMK AO2 T02630138
K3R7 182235Z AUTO 09005KT 10SM CLR 27/14 A3011 RMK AO2 T02690140
K3R7 182215Z AUTO 10003KT 10SM CLR 27/14 A3011 RMK AO2 T02710137
K3R7 182155Z AUTO 05006KT 10SM CLR 28/14 A3011 RMK AO2 T02750139
K3R7 182135Z AUTO 00000KT 10SM CLR 28/14 A3011 RMK AO2 T02760138
K3R7 182115Z AUTO 09006KT 10SM CLR 28/14 A3011 RMK AO2 T02760140
K3R7 182055Z AUTO 08008KT 10SM CLR 28/14 A3011 RMK AO2 T02770142
K3R7 182035Z AUTO 13004KT 10SM CLR 27/14 A3012 RMK AO2 T02740135
K3R7 182015Z AUTO 00000KT 10SM CLR 27/13 A3012 RMK AO2 T02710132
K3R7 181955Z AUTO 04004KT 10SM CLR 27/14 A3012 RMK AO2 T02710135
K3R7 181935Z AUTO 06003KT 10SM CLR 27/14 A3013 RMK AO2 T02700144
K3R7 181915Z AUTO 36006KT 10SM CLR 27/14 A3013 RMK AO2 T02650143
K3R7 181855Z AUTO 00000KT 10SM CLR 26/15 A3015 RMK AO2 T02640149
K3R7 181835Z AUTO 00000KT 10SM CLR 26/15 A3016 RMK AO2 T02600147
K3R7 181815Z AUTO 00000KT 10SM CLR 26/15 A3017 RMK AO2 T02550149
K3R7 181755Z AUTO 03003KT 10SM CLR 25/15 A3018 RMK AO2 T02470148 10250 20121
K3R7 181735Z AUTO 00000KT 10SM CLR 25/15 A3018 RMK AO2 T02460150
K3R7 181715Z AUTO 13005KT 10SM CLR 24/15 A3019 RMK AO2 T02420151
K3R7 181655Z AUTO 00000KT 10SM CLR 24/15 A3019 RMK AO2 T02390153
K3R7 181635Z AUTO 00000KT 10SM CLR 24/15 A3020 RMK AO2 T02350150
K3R7 181615Z AUTO 06006KT 10SM CLR 23/15 A3020 RMK AO2 T02330145
K3R7 181555Z AUTO 08006KT 10SM CLR 23/14 A3020 RMK AO2 T02270141
K3R7 181535Z AUTO 10SM CLR 22/14 A3020 RMK AO2 T02210142
K3R7 181515Z AUTO 08007KT 10SM CLR 21/14 A3020 RMK AO2 T02140140
K3R7 181455Z AUTO 08006KT 10SM CLR 20/14 A3020 RMK AO2 T02020141
K3R7 181435Z AUTO 09006KT 10SM CLR 19/14 A3020 RMK AO2 T01900141
K3R7 181415Z AUTO 08005KT 10SM CLR 18/14 A3020 RMK AO2 T01760137
K3R7 181355Z AUTO 08007KT 10SM CLR 16/13 A3019 RMK AO2 T01640131
K3R7 181335Z AUTO 08005KT 10SM CLR 16/13 A3018 RMK AO2 T01570133
K3R7 181315Z AUTO 07006KT 10SM CLR 14/13 A3018 RMK AO2 T01440127
K3R7 181255Z AUTO 07003KT 10SM CLR 13/12 A3017 RMK AO2 T01320120
K3R7 181235Z AUTO 00000KT 10SM CLR 13/12 A3017 RMK AO2 T01260117
K3R7 181215Z AUTO 07003KT 10SM CLR 12/12 A3017 RMK AO2 T01210115
K3R7 181155Z AUTO 00000KT 10SM CLR 13/12 A3017 RMK AO2 T01260117 10144 20115
K3R7 181135Z AUTO 00000KT 10SM CLR 13/12 A3017 RMK AO2 T01250116
K3R7 181115Z AUTO 00000KT 10SM CLR 12/12 A3017 RMK AO2 T01240116
K3R7 181055Z AUTO 00000KT 10SM CLR 12/11 A3017 RMK AO2 T01210113
K3R7 181035Z AUTO 00000KT 10SM CLR 12/11 A3017 RMK AO2 T01210113
K3R7 181015Z AUTO 06003KT 10SM CLR 12/11 A3016 RMK AO2 T01210112
K3R7 180955Z AUTO 07003KT 10SM CLR 12/11 A3016 RMK AO2 T01160106
K3R7 180935Z AUTO 00000KT 10SM CLR 12/11 A3016 RMK AO2 T01200109
K3R7 180915Z AUTO 00000KT 10SM CLR 12/11 A3016 RMK AO2 T01150106
K3R7 180855Z AUTO 00000KT 10SM CLR 12/11 A3016 RMK AO2 T01200111
K3R7 180835Z AUTO 00000KT 10SM CLR 12/11 A3016 RMK AO2 T01200110
K3R7 180815Z AUTO 00000KT 10SM CLR 12/11 A3016 RMK AO2 T01220111
K3R7 180755Z AUTO 00000KT 10SM CLR 12/11 A3016 RMK AO2 T01240109
K3R7 180735Z AUTO 00000KT 10SM CLR 13/11 A3016 RMK AO2 T01260108
K3R7 180715Z AUTO 00000KT 10SM CLR 13/11 A3016 RMK AO2 T01300110
K3R7 180655Z AUTO 00000KT 10SM CLR 13/11 A3016 RMK AO2 T01290111
K3R7 180635Z AUTO 00000KT 10SM CLR 13/11 A3016 RMK AO2 T01310112
K3R7 180615Z AUTO 00000KT 10SM CLR 14/11 A3017 RMK AO2 T01380110
K3R7 180555Z AUTO 00000KT 10SM CLR 14/10 A3017 RMK AO2 T01380102 10210 20138 402500083
K3R7 180535Z AUTO 00000KT 10SM CLR 14/11 A3016 RMK AO2 T01400110
K3R7 180515Z AUTO 00000KT 10SM CLR 14/11 A3017 RMK AO2 T01400112
K3R7 180455Z AUTO 00000KT 10SM CLR 15/11 A3018 RMK AO2 T01450109
K3R7 180435Z AUTO 00000KT 10SM CLR 15/10 A3018 RMK AO2 T01460102
K3R7 180415Z AUTO 00000KT 10SM CLR 15/10 A3018 RMK AO2 T01500095
K3R7 180355Z AUTO 00000KT 10SM CLR 15/10 A3017 RMK AO2 T01510095
K3R7 180335Z AUTO 00000KT 10SM CLR 15/10 A3018 RMK AO2 T01510095
K3R7 180315Z AUTO 00000KT 10SM CLR 15/10 A3018 RMK AO2 T01510095
K3R7 180255Z AUTO 00000KT 10SM CLR 16/09 A3017 RMK AO2 T01600091
K3R7 180235Z AUTO 00000KT 10SM CLR 16/09 A3017 RMK AO2 T01570090
K3R7 180215Z AUTO 00000KT 10SM CLR 16/09 A3017 RMK AO2 T01630090
K3R7 180155Z AUTO 00000KT 10SM CLR 16/10 A3017 RMK AO2 T01620100
K3R7 180135Z AUTO 00000KT 10SM CLR 17/10 A3017 RMK AO2 T01660095
K3R7 180115Z AUTO 00000KT 10SM CLR 17/09 A3016 RMK AO2 T01690090
K3R7 180055Z AUTO 00000KT 10SM CLR 18/08 A3015 RMK AO2 T01820081
K3R7 180035Z AUTO 00000KT 10SM CLR 18/07 A3015 RMK AO2 T01840074
K3R7 180015Z AUTO 04004KT 10SM CLR 20/07 A3014 RMK AO2 T02010072
K3R7 172355Z AUTO 04003KT 10SM CLR 21/07 A3013 RMK AO2 T02100066 10250 20210
K3R7 172335Z AUTO 05004KT 10SM CLR 22/07 A3013 RMK AO2 T02170067
K3R7 172315Z AUTO 06006KT 10SM CLR 23/06 A3013 RMK AO2 T02310060
K3R7 172255Z AUTO 05006KT 10SM CLR 24/05 A3013 RMK AO2 T02400054
K3R7 172235Z AUTO 05007KT 10SM CLR 25/05 A3012 RMK AO2 T02450054
K3R7 172215Z AUTO 03006KT 10SM CLR 25/05 A3012 RMK AO2 T02470053
K3R7 172155Z AUTO 01008KT 10SM CLR 25/06 A3012 RMK AO2 T02500061
K3R7 172135Z AUTO 01008KT 10SM CLR 25/06 A3013 RMK AO2 T02480062
K3R7 172115Z AUTO 02008G14KT 10SM CLR 25/06 A3013 RMK AO2 T02480063
K3R7 172055Z AUTO 01008KT 10SM CLR 25/07 A3013 RMK AO2 T02460068
K3R7 172035Z AUTO 36010G19KT 10SM CLR 24/07 A3014 RMK AO2 T02420067
K3R7 172015Z AUTO 01009G14KT 10SM CLR 24/07 A3015 RMK AO2 T02420065
K3R7 171955Z AUTO 02010KT 10SM CLR 24/07 A3015 RMK AO2 T02430070
K3R7 171935Z AUTO 36009KT 10SM CLR 24/07 A3015 RMK AO2 T02390073
K3R7 171915Z AUTO 03008KT 10SM CLR 24/07 A3017 RMK AO2 T02360067